Time;durP1;ratioP1;P1;durP2;ratioP2;P2;SDS_P1;SDS_P2;PMS_P1;PMS_P2;Temp;Humidity;BMP_temperature;BMP_pressure;BME280_temperature;BME280_humidity;BME280_pressure;Samples;Min_cycle;Max_cycle;Signal;HPM_P1;HPM_P2
2024/01/13 00:02:02;;;;;;;6.27;4.67;;;20.50;53.70;;;;;;5096665;28;20193;-68
2024/01/13 00:04:27;;;;;;;4.70;4.10;;;20.50;53.70;;;;;;5096402;28;20181;-69
2024/01/13 00:06:53;;;;;;;6.90;4.70;;;20.40;53.60;;;;;;5078256;28;20261;-68
2024/01/13 00:09:19;;;;;;;7.73;5.20;;;20.50;53.70;;;;;;5075896;28;20198;-70
2024/01/13 00:11:44;;;;;;;4.83;3.93;;;20.40;53.60;;;;;;5075703;28;20182;-69
2024/01/13 00:14:10;;;;;;;4.80;4.30;;;20.40;53.70;;;;;;5075505;28;20237;-69
2024/01/13 00:16:36;;;;;;;4.40;3.87;;;20.40;53.60;;;;;;5075375;28;20178;-69
2024/01/13 00:19:01;;;;;;;7.10;4.20;;;20.40;53.60;;;;;;5075492;28;20206;-69
2024/01/13 00:21:27;;;;;;;6.23;4.47;;;20.40;53.60;;;;;;5075491;28;20200;-69
2024/01/13 00:23:52;;;;;;;7.30;4.07;;;20.40;53.70;;;;;;5074967;28;20177;-69
2024/01/13 00:26:18;;;;;;;6.10;4.30;;;20.40;53.70;;;;;;5075421;28;20174;-69
2024/01/13 00:28:44;;;;;;;5.00;3.77;;;20.40;53.70;;;;;;5057486;28;20251;-69
2024/01/13 00:31:10;;;;;;;4.60;3.90;;;20.40;53.70;;;;;;5075291;28;20167;-69
2024/01/13 00:33:36;;;;;;;5.03;3.87;;;20.40;53.70;;;;;;5075186;28;20178;-69
2024/01/13 00:36:02;;;;;;;6.47;4.37;;;20.40;53.70;;;;;;5075375;28;20416;-69
2024/01/13 00:38:27;;;;;;;6.73;3.50;;;20.40;53.70;;;;;;5075112;28;20186;-68
2024/01/13 00:40:53;;;;;;;4.70;3.50;;;20.40;53.70;;;;;;5075078;28;20249;-69
2024/01/13 00:43:19;;;;;;;5.57;3.80;;;20.40;53.70;;;;;;5075214;28;20700;-69
2024/01/13 00:45:44;;;;;;;5.03;3.40;;;20.40;53.80;;;;;;5075144;28;20178;-69
2024/01/13 00:48:10;;;;;;;5.83;4.30;;;20.40;53.80;;;;;;5075331;28;20166;-68
2024/01/13 00:50:35;;;;;;;3.70;3.30;;;20.40;53.80;;;;;;5056858;28;20561;-69
2024/01/13 00:53:01;;;;;;;6.50;4.30;;;20.30;53.70;;;;;;5073816;28;20653;-69
2024/01/13 00:55:27;;;;;;;7.30;4.30;;;20.30;53.70;;;;;;5075020;28;20181;-69
2024/01/13 00:57:52;;;;;;;5.30;4.33;;;20.40;53.80;;;;;;5074968;28;20651;-69
2024/01/13 01:00:18;;;;;;;5.60;4.07;;;20.40;53.80;;;;;;5074834;28;20225;-70
2024/01/13 01:02:43;;;;;;;4.80;3.87;;;20.30;53.70;;;;;;5075072;28;20245;-69
2024/01/13 01:05:09;;;;;;;6.10;4.30;;;20.30;53.70;;;;;;5075202;28;20162;-69
2024/01/13 01:07:34;;;;;;;5.83;4.00;;;20.30;53.80;;;;;;5056870;28;20171;-68
2024/01/13 01:10:00;;;;;;;4.87;4.23;;;20.30;53.70;;;;;;5075299;28;20239;-69
2024/01/13 01:12:26;;;;;;;5.20;3.90;;;20.30;53.80;;;;;;5075048;28;20228;-69
2024/01/13 01:14:52;;;;;;;5.60;4.57;;;20.30;53.80;;;;;;5075006;28;20397;-69
2024/01/13 01:17:17;;;;;;;4.23;3.30;;;20.30;53.80;;;;;;5074783;28;20197;-69
2024/01/13 01:19:43;;;;;;;6.63;3.90;;;20.30;53.70;;;;;;5074426;28;20550;-69
2024/01/13 01:22:08;;;;;;;4.90;3.53;;;20.30;53.70;;;;;;5074296;28;20702;-69
2024/01/13 01:24:34;;;;;;;7.37;4.07;;;20.30;53.70;;;;;;5074607;28;20251;-69
2024/01/13 01:26:59;;;;;;;5.87;4.03;;;20.30;53.70;;;;;;5074438;28;20610;-69
2024/01/13 01:29:25;;;;;;;5.33;3.63;;;20.30;53.80;;;;;;5074162;28;20193;-69
2024/01/13 01:31:50;;;;;;;6.07;4.47;;;20.30;53.80;;;;;;5074213;28;20296;-69
2024/01/13 01:34:16;;;;;;;5.00;3.30;;;20.30;53.80;;;;;;5074555;28;20170;-70
2024/01/13 01:36:42;;;;;;;4.80;4.00;;;20.30;53.70;;;;;;5074233;28;20177;-69
2024/01/13 01:39:09;;;;;;;4.33;3.50;;;20.30;53.70;;;;;;5073802;28;20229;-70
2024/01/13 01:41:35;;;;;;;3.37;3.07;;;20.30;53.80;;;;;;5073898;28;20263;-70
2024/01/13 01:44:01;;;;;;;5.20;3.90;;;20.30;53.80;;;;;;5073846;28;20416;-70
2024/01/13 01:46:30;;;;;;;4.53;3.50;;;20.30;53.80;;;;;;5073789;28;20171;-70
2024/01/13 01:48:58;;;;;;;4.83;3.70;;;20.30;53.80;;;;;;5073960;28;20186;-70
2024/01/13 01:51:25;;;;;;;5.23;3.80;;;20.30;54.40;;;;;;5055674;28;20420;-70
2024/01/13 01:53:51;;;;;;;4.00;3.60;;;20.30;53.80;;;;;;5073786;28;20946;-69
2024/01/13 01:56:23;;;;;;;5.53;3.57;;;20.30;53.80;;;;;;5073649;28;20440;-69
2024/01/13 01:58:51;;;;;;;4.83;3.50;;;20.30;53.80;;;;;;5073516;28;20493;-70
2024/01/13 02:01:17;;;;;;;3.63;2.97;;;20.30;53.80;;;;;;5073473;28;20456;-69
2024/01/13 02:03:43;;;;;;;5.20;3.60;;;20.30;53.80;;;;;;5073672;28;20466;-70
2024/01/13 02:06:10;;;;;;;5.70;3.80;;;20.30;53.80;;;;;;5073410;28;20432;-70
2024/01/13 02:08:40;;;;;;;3.70;3.10;;;20.30;53.80;;;;;;5073763;28;20459;-70
2024/01/13 02:11:06;;;;;;;4.93;3.50;;;20.30;53.80;;;;;;5073332;28;20447;-70
2024/01/13 02:13:31;;;;;;;5.20;3.60;;;20.30;53.80;;;;;;5073224;28;20500;-70
2024/01/13 02:15:57;;;;;;;3.63;3.20;;;20.20;53.80;;;;;;5073227;28;20957;-70
2024/01/13 02:18:23;;;;;;;4.40;3.50;;;20.30;53.80;;;;;;5072956;28;20295;-70
2024/01/13 02:20:49;;;;;;;4.57;3.70;;;20.20;53.80;;;;;;5073132;28;20225;-70
2024/01/13 02:23:14;;;;;;;3.73;2.80;;;20.20;53.80;;;;;;5072887;28;20171;-70
2024/01/13 02:25:40;;;;;;;3.83;3.43;;;20.30;53.90;;;;;;5073147;28;20984;-70
2024/01/13 02:28:05;;;;;;;3.97;3.40;;;20.20;53.80;;;;;;5073099;28;20182;-69
2024/01/13 02:30:31;;;;;;;4.60;3.30;;;20.30;53.90;;;;;;5072740;28;20185;-70
2024/01/13 02:32:56;;;;;;;5.10;3.10;;;20.20;53.80;;;;;;5073194;28;20182;-70
2024/01/13 02:35:22;;;;;;;4.77;3.40;;;20.20;53.80;;;;;;5073090;28;20771;-70
2024/01/13 02:37:47;;;;;;;4.40;3.10;;;20.20;53.80;;;;;;5072985;28;20181;-69
2024/01/13 02:40:13;;;;;;;4.13;3.30;;;20.20;53.80;;;;;;5072870;28;20347;-70
2024/01/13 02:42:38;;;;;;;3.80;3.10;;;20.20;53.80;;;;;;5072834;28;20177;-70
2024/01/13 02:45:04;;;;;;;4.33;3.60;;;20.20;53.80;;;;;;5073028;28;20224;-70
2024/01/13 02:47:41;;;;;;;3.87;2.90;;;20.20;53.80;;;;;;5072714;28;20249;-69
2024/01/13 02:50:07;;;;;;;2.83;2.60;;;20.20;53.80;;;;;;5072704;28;20186;-70
2024/01/13 02:52:33;;;;;;;4.43;3.27;;;20.20;53.80;;;;;;5073397;28;20439;-70
2024/01/13 02:54:58;;;;;;;3.23;2.70;;;20.20;53.80;;;;;;5072860;28;20405;-70
2024/01/13 02:57:26;;;;;;;4.40;2.80;;;20.20;53.80;;;;;;5073133;28;20174;-70
2024/01/13 02:59:51;;;;;;;5.20;3.60;;;20.20;53.80;;;;;;5072616;28;20208;-69
2024/01/13 03:02:17;;;;;;;4.20;3.80;;;20.20;53.80;;;;;;5072739;28;20539;-70
2024/01/13 03:04:43;;;;;;;3.80;3.10;;;20.20;53.80;;;;;;5072642;28;20672;-70
2024/01/13 03:07:08;;;;;;;4.63;2.90;;;20.20;53.80;;;;;;5054466;28;20212;-70
2024/01/13 03:09:34;;;;;;;4.30;3.60;;;20.20;53.80;;;;;;5072463;28;20190;-70
2024/01/13 03:12:00;;;;;;;4.33;3.27;;;20.20;53.80;;;;;;5072580;28;20178;-70
2024/01/13 03:14:26;;;;;;;3.40;3.03;;;20.20;53.80;;;;;;5054454;28;20529;-69
2024/01/13 03:16:51;;;;;;;4.80;3.30;;;20.20;53.80;;;;;;5074222;28;20477;-70
2024/01/13 03:19:18;;;;;;;3.83;2.93;;;20.20;53.80;;;;;;5076255;28;20263;-70
2024/01/13 03:21:43;;;;;;;4.60;3.40;;;20.20;53.80;;;;;;5076897;28;20570;-70
2024/01/13 03:24:09;;;;;;;3.70;3.10;;;20.20;53.80;;;;;;5076575;28;20412;-69
2024/01/13 03:26:34;;;;;;;4.00;2.73;;;20.20;53.80;;;;;;5076688;28;20166;-70
2024/01/13 03:29:00;;;;;;;3.47;3.17;;;20.20;53.80;;;;;;5076794;28;20726;-70
2024/01/13 03:31:26;;;;;;;4.80;3.30;;;20.20;53.90;;;;;;5076388;28;20724;-70
2024/01/13 03:33:51;;;;;;;3.80;3.10;;;20.20;53.80;;;;;;5076220;28;20189;-69
2024/01/13 03:36:17;;;;;;;3.60;2.60;;;20.20;53.80;;;;;;5076631;28;20189;-69
2024/01/13 03:38:43;;;;;;;4.10;2.90;;;20.20;53.80;;;;;;5076373;28;20765;-69
2024/01/13 03:41:09;;;;;;;3.60;3.07;;;20.20;53.80;;;;;;5076404;28;20456;-70
2024/01/13 03:43:34;;;;;;;3.33;2.67;;;20.20;53.80;;;;;;5076138;28;20553;-70
2024/01/13 03:46:00;;;;;;;3.33;2.80;;;20.20;53.80;;;;;;5076429;28;20408;-70
2024/01/13 03:48:26;;;;;;;4.73;3.37;;;20.20;53.80;;;;;;5076105;28;20194;-70
2024/01/13 03:50:51;;;;;;;3.57;3.10;;;20.20;53.90;;;;;;5057923;28;20210;-70
2024/01/13 03:53:17;;;;;;;4.80;3.20;;;20.20;53.80;;;;;;5058048;28;20190;-70
2024/01/13 03:55:44;;;;;;;4.10;2.77;;;20.20;53.80;;;;;;5076084;28;20181;-70
2024/01/13 03:58:09;;;;;;;2.87;2.53;;;20.20;53.80;;;;;;5076341;28;20424;-69
2024/01/13 04:00:35;;;;;;;4.30;3.17;;;20.20;53.90;;;;;;5075698;28;21044;-70
2024/01/13 04:03:01;;;;;;;3.47;2.50;;;20.20;53.80;;;;;;5075725;28;20239;-70
2024/01/13 04:05:27;;;;;;;3.80;2.77;;;20.20;53.80;;;;;;5075879;28;20269;-69
2024/01/13 04:07:52;;;;;;;3.20;2.87;;;20.20;53.80;;;;;;5076137;28;20500;-70
2024/01/13 04:10:18;;;;;;;3.30;3.00;;;20.20;53.80;;;;;;5075522;28;20673;-69
2024/01/13 04:12:45;;;;;;;3.37;3.07;;;20.20;53.90;;;;;;5075690;28;20171;-70
2024/01/13 04:15:11;;;;;;;3.13;2.73;;;20.20;53.80;;;;;;5075748;28;20173;-70
2024/01/13 04:17:37;;;;;;;3.07;2.60;;;20.20;53.80;;;;;;5075880;28;20939;-70
2024/01/13 04:20:03;;;;;;;3.43;2.50;;;20.20;53.80;;;;;;5075993;28;20505;-70
2024/01/13 04:22:28;;;;;;;3.70;2.50;;;20.20;53.80;;;;;;5076376;28;20650;-70
2024/01/13 04:24:54;;;;;;;2.83;2.20;;;20.20;53.80;;;;;;5076143;28;20404;-69
2024/01/13 04:27:20;;;;;;;3.30;3.00;;;20.20;53.80;;;;;;5075865;28;20162;-70
2024/01/13 04:29:45;;;;;;;3.73;3.00;;;20.20;53.80;;;;;;5075722;28;20190;-70
2024/01/13 04:32:11;;;;;;;3.20;2.43;;;20.10;53.80;;;;;;5076097;28;20221;-70
2024/01/13 04:34:36;;;;;;;3.40;2.70;;;20.20;53.80;;;;;;5075740;28;20170;-70
2024/01/13 04:37:03;;;;;;;2.80;2.30;;;20.10;53.80;;;;;;5076289;28;20633;-70
2024/01/13 04:39:29;;;;;;;3.00;2.53;;;20.20;53.80;;;;;;5075730;28;20289;-70
2024/01/13 04:41:54;;;;;;;2.97;2.43;;;20.10;53.80;;;;;;5075468;28;21105;-69
2024/01/13 04:44:20;;;;;;;2.40;2.20;;;20.10;53.80;;;;;;5076003;28;20171;-70
2024/01/13 04:46:46;;;;;;;2.97;2.30;;;20.10;53.80;;;;;;5075989;28;20179;-70
2024/01/13 04:49:11;;;;;;;2.97;2.33;;;20.10;53.80;;;;;;5075889;28;20198;-70
2024/01/13 04:51:37;;;;;;;2.63;2.10;;;20.10;53.80;;;;;;5075760;28;20525;-71
2024/01/13 04:54:03;;;;;;;3.03;2.10;;;20.20;53.80;;;;;;5075603;28;20206;-70
2024/01/13 04:56:29;;;;;;;3.80;2.57;;;20.10;53.80;;;;;;5075866;28;20174;-70
2024/01/13 04:58:55;;;;;;;3.90;2.20;;;20.20;53.80;;;;;;5075179;28;20435;-70
2024/01/13 05:01:21;;;;;;;3.90;2.93;;;20.10;53.80;;;;;;5075015;28;20515;-70
2024/01/13 05:03:46;;;;;;;3.17;2.40;;;20.10;53.80;;;;;;5075035;28;20174;-70
2024/01/13 05:06:15;;;;;;;2.83;2.40;;;20.10;53.80;;;;;;5075588;28;20178;-70
2024/01/13 05:08:40;;;;;;;3.50;3.07;;;20.10;53.80;;;;;;5074793;28;20186;-70
2024/01/13 05:11:06;;;;;;;3.43;2.50;;;20.10;53.80;;;;;;5074919;28;20501;-70
2024/01/13 05:13:31;;;;;;;3.00;2.30;;;20.10;53.80;;;;;;5075280;28;20185;-70
2024/01/13 05:15:57;;;;;;;3.27;2.40;;;20.10;53.80;;;;;;5075065;28;20182;-69
2024/01/13 05:18:22;;;;;;;4.07;2.87;;;20.10;53.80;;;;;;5074581;28;20685;-70
2024/01/13 05:20:48;;;;;;;3.40;2.40;;;20.10;53.80;;;;;;5074472;28;20237;-70
2024/01/13 05:23:13;;;;;;;3.63;2.30;;;20.10;53.80;;;;;;5074777;28;20174;-70
2024/01/13 05:25:39;;;;;;;2.90;2.57;;;20.10;53.80;;;;;;5075064;28;20178;-69
2024/01/13 05:28:05;;;;;;;3.83;2.67;;;20.10;53.80;;;;;;5074536;28;20167;-70
2024/01/13 05:30:32;;;;;;;2.80;2.53;;;20.10;53.80;;;;;;5056590;28;20190;-70
2024/01/13 05:32:59;;;;;;;3.73;2.73;;;20.10;53.80;;;;;;5074394;28;20170;-70
2024/01/13 05:35:25;;;;;;;2.90;2.60;;;20.10;53.80;;;;;;5074707;28;21002;-70
2024/01/13 05:37:51;;;;;;;3.80;2.23;;;20.10;53.80;;;;;;5074432;28;20486;-69
2024/01/13 05:40:16;;;;;;;2.80;2.50;;;20.10;53.80;;;;;;5073401;28;20437;-69
2024/01/13 05:42:42;;;;;;;3.53;2.50;;;20.10;53.80;;;;;;5074448;28;20235;-70
2024/01/13 05:45:08;;;;;;;3.23;2.50;;;20.10;53.80;;;;;;5074497;28;20549;-69
2024/01/13 05:47:34;;;;;;;3.07;2.77;;;20.10;53.80;;;;;;5074118;28;20185;-70
2024/01/13 05:50:00;;;;;;;3.93;2.67;;;20.10;53.90;;;;;;5073735;28;20463;-69
2024/01/13 05:52:26;;;;;;;3.20;2.50;;;20.00;53.80;;;;;;5073629;28;20178;-70
2024/01/13 05:54:51;;;;;;;2.60;2.10;;;20.10;53.80;;;;;;5073688;28;20496;-70
2024/01/13 05:57:17;;;;;;;3.47;2.20;;;20.10;53.90;;;;;;5073722;28;20178;-70
2024/01/13 05:59:43;;;;;;;2.70;2.00;;;20.00;53.80;;;;;;5073842;28;20545;-70
2024/01/13 06:02:08;;;;;;;2.43;2.13;;;20.00;53.80;;;;;;5074095;28;20233;-70
2024/01/13 06:04:34;;;;;;;2.57;2.20;;;20.00;53.80;;;;;;5073084;28;20174;-69
2024/01/13 06:06:59;;;;;;;3.13;2.27;;;20.00;53.80;;;;;;5073770;28;20182;-70
2024/01/13 06:09:25;;;;;;;3.10;2.37;;;20.00;53.80;;;;;;5073646;28;20199;-70
2024/01/13 06:11:51;;;;;;;3.10;2.57;;;20.00;53.80;;;;;;5073532;28;20178;-70
2024/01/13 06:14:16;;;;;;;2.90;2.40;;;20.00;53.80;;;;;;5073772;28;20183;-69
2024/01/13 06:16:42;;;;;;;3.47;2.50;;;20.00;53.80;;;;;;5073332;28;20183;-69
2024/01/13 06:19:07;;;;;;;3.20;2.27;;;20.00;53.80;;;;;;5073380;28;20244;-70
2024/01/13 06:21:42;;;;;;;4.40;2.43;;;20.00;53.80;;;;;;5073165;28;20219;-70
2024/01/13 06:24:07;;;;;;;3.53;2.30;;;20.00;53.80;;;;;;5073212;28;20664;-70
2024/01/13 06:26:33;;;;;;;2.40;2.10;;;20.00;53.80;;;;;;5073470;28;20467;-70
2024/01/13 06:28:58;;;;;;;4.10;2.60;;;20.10;53.90;;;;;;5073530;28;20209;-70
2024/01/13 06:31:24;;;;;;;2.73;2.43;;;20.10;53.90;;;;;;5073535;28;20180;-70
2024/01/13 06:33:49;;;;;;;2.70;2.13;;;20.10;53.90;;;;;;5073358;28;20177;-70
2024/01/13 06:36:15;;;;;;;2.20;1.90;;;20.10;53.90;;;;;;5073415;28;20299;-70
2024/01/13 06:38:40;;;;;;;2.50;1.93;;;20.10;53.90;;;;;;5073835;28;20205;-69
2024/01/13 06:41:06;;;;;;;3.30;2.63;;;20.10;53.90;;;;;;5073208;28;20202;-70
2024/01/13 06:43:32;;;;;;;2.70;2.20;;;20.10;53.90;;;;;;5073392;28;20236;-68
2024/01/13 06:45:57;;;;;;;2.83;2.30;;;20.10;53.90;;;;;;5073827;28;20170;-68
2024/01/13 06:48:23;;;;;;;2.33;2.10;;;20.10;53.90;;;;;;5073746;28;20195;-69
2024/01/13 06:50:48;;;;;;;3.10;1.93;;;20.10;53.90;;;;;;5072495;28;20553;-69
2024/01/13 06:53:14;;;;;;;2.77;2.47;;;20.10;53.80;;;;;;5072952;28;20174;-68
2024/01/13 06:55:39;;;;;;;3.73;3.00;;;20.20;53.90;;;;;;5055682;28;20190;-69
2024/01/13 06:58:05;;;;;;;3.37;2.10;;;20.20;53.90;;;;;;5072838;28;20182;-69
2024/01/13 07:00:31;;;;;;;2.63;2.20;;;20.20;53.90;;;;;;5073564;28;20198;-69
2024/01/13 07:02:56;;;;;;;2.60;2.10;;;20.20;53.90;;;;;;5073359;28;20178;-69
2024/01/13 07:05:22;;;;;;;3.03;2.60;;;20.20;53.90;;;;;;5073445;28;20185;-68
2024/01/13 07:07:47;;;;;;;2.63;2.10;;;20.20;53.90;;;;;;5055515;28;20175;-69
2024/01/13 07:10:13;;;;;;;3.30;2.60;;;20.30;54.00;;;;;;5072781;28;20203;-69
2024/01/13 07:12:39;;;;;;;3.50;2.40;;;20.30;53.90;;;;;;5073453;28;20220;-69
2024/01/13 07:15:05;;;;;;;2.77;1.90;;;20.30;53.90;;;;;;5073256;28;20589;-69
2024/01/13 07:17:30;;;;;;;2.33;2.13;;;20.30;53.90;;;;;;5072723;28;20208;-68
2024/01/13 07:19:56;;;;;;;3.17;2.57;;;20.30;53.80;;;;;;5072819;28;20425;-68
2024/01/13 07:22:21;;;;;;;2.33;1.70;;;20.30;53.80;;;;;;5072866;28;20744;-69
2024/01/13 07:24:48;;;;;;;2.33;2.13;;;20.30;53.80;;;;;;5054974;28;20174;-69
2024/01/13 07:27:14;;;;;;;2.33;1.93;;;20.40;53.80;;;;;;5073443;28;20662;-69
2024/01/13 07:29:40;;;;;;;2.40;2.17;;;20.40;53.80;;;;;;5072944;28;20446;-70
2024/01/13 07:32:05;;;;;;;2.80;2.33;;;20.40;53.80;;;;;;5073024;28;20550;-69
2024/01/13 07:34:31;;;;;;;2.57;2.10;;;20.40;53.80;;;;;;5073417;28;20179;-69
2024/01/13 07:36:56;;;;;;;2.53;1.90;;;20.40;53.80;;;;;;5073325;28;20655;-68
2024/01/13 07:39:22;;;;;;;2.63;2.10;;;20.40;53.80;;;;;;5073302;28;20198;-69
2024/01/13 07:41:48;;;;;;;3.10;1.90;;;20.40;53.80;;;;;;5073106;28;20254;-69
2024/01/13 07:44:14;;;;;;;2.30;1.90;;;20.40;53.70;;;;;;5073174;28;20166;-69
2024/01/13 07:46:42;;;;;;;2.73;2.47;;;20.40;53.80;;;;;;5073202;28;20403;-69
2024/01/13 07:49:08;;;;;;;2.40;2.00;;;20.50;53.80;;;;;;5055270;28;20186;-68
2024/01/13 07:51:35;;;;;;;2.53;1.70;;;20.50;53.80;;;;;;5072952;28;20419;-69
2024/01/13 07:54:00;;;;;;;2.33;1.97;;;20.50;53.80;;;;;;5073285;28;20234;-69
2024/01/13 07:56:26;;;;;;;2.10;1.90;;;20.50;53.80;;;;;;5073124;28;20428;-69
2024/01/13 07:58:52;;;;;;;3.20;1.70;;;20.50;53.80;;;;;;5073265;28;20679;-69
2024/01/13 08:01:18;;;;;;;2.63;2.20;;;20.50;53.80;;;;;;5072845;28;20249;-69
2024/01/13 08:03:44;;;;;;;2.93;2.40;;;20.50;53.80;;;;;;5076114;28;20547;-68
2024/01/13 08:06:09;;;;;;;2.60;2.23;;;20.50;53.80;;;;;;5077227;28;20408;-69
2024/01/13 08:08:35;;;;;;;2.30;2.10;;;20.50;53.80;;;;;;5077593;28;20183;-68
2024/01/13 08:11:01;;;;;;;2.60;1.90;;;20.50;53.70;;;;;;5077042;28;20202;-68
2024/01/13 08:13:27;;;;;;;3.70;2.07;;;20.50;53.80;;;;;;5058593;28;20693;-69
2024/01/13 08:15:53;;;;;;;3.00;2.10;;;20.50;53.70;;;;;;5076802;28;20611;-69
2024/01/13 08:18:18;;;;;;;2.33;1.80;;;20.50;53.70;;;;;;5076368;28;20531;-69
2024/01/13 08:20:44;;;;;;;2.33;1.97;;;20.50;53.80;;;;;;5076402;28;20202;-68
2024/01/13 08:23:10;;;;;;;3.40;2.37;;;20.50;53.70;;;;;;5076349;28;20254;-68
2024/01/13 08:25:35;;;;;;;2.10;1.80;;;20.50;53.70;;;;;;5076494;28;20288;-69
2024/01/13 08:28:01;;;;;;;2.47;1.80;;;20.50;53.70;;;;;;5076376;28;20195;-69
2024/01/13 08:30:28;;;;;;;1.70;1.50;;;20.50;53.70;;;;;;5076636;28;20177;-69
2024/01/13 08:32:53;;;;;;;3.13;2.13;;;20.50;53.70;;;;;;5076260;28;20177;-68
2024/01/13 08:35:19;;;;;;;2.80;2.17;;;20.50;53.70;;;;;;5076546;28;20404;-69
2024/01/13 08:37:44;;;;;;;2.53;2.07;;;20.50;53.60;;;;;;5075833;28;20173;-69
2024/01/13 08:40:10;;;;;;;4.30;2.20;;;20.60;53.70;;;;;;5075190;28;20570;-69
2024/01/13 08:42:37;;;;;;;3.03;2.70;;;20.50;53.60;;;;;;5076542;28;20838;-69
2024/01/13 08:45:04;;;;;;;3.70;2.20;;;20.50;53.50;;;;;;5075027;28;20174;-69
2024/01/13 08:47:31;;;;;;;2.83;2.30;;;20.50;53.50;;;;;;5075359;28;20401;-68
2024/01/13 08:49:56;;;;;;;4.03;3.00;;;20.50;53.50;;;;;;5075042;28;20431;-68
2024/01/13 08:52:22;;;;;;;3.40;1.80;;;20.50;53.50;;;;;;5075106;28;20787;-69
2024/01/13 08:54:48;;;;;;;3.43;2.00;;;20.50;53.40;;;;;;5074958;28;20239;-67
2024/01/13 08:57:13;;;;;;;3.90;2.23;;;20.50;53.50;;;;;;5075119;28;20175;-69
2024/01/13 08:59:39;;;;;;;4.10;2.07;;;20.50;53.50;;;;;;5075414;28;20202;-68
2024/01/13 09:02:06;;;;;;;2.80;2.07;;;20.50;53.50;;;;;;5075300;28;20197;-68
2024/01/13 09:04:32;;;;;;;3.23;2.10;;;20.50;54.00;;;;;;5074409;28;20163;-68
2024/01/13 09:06:58;;;;;;;4.33;1.90;;;20.50;53.40;;;;;;5074588;28;20926;-68
2024/01/13 09:09:23;;;;;;;1.80;1.50;;;20.50;53.50;;;;;;5091009;28;21199;-69
2024/01/13 09:11:49;;;;;;;2.10;1.90;;;20.50;53.50;;;;;;5094663;28;20174;-71
2024/01/13 09:14:16;;;;;;;2.50;1.83;;;20.60;53.50;;;;;;5094728;28;20177;-73
2024/01/13 09:16:43;;;;;;;2.37;2.00;;;20.50;53.60;;;;;;5095649;28;20189;-73
2024/01/13 09:19:09;;;;;;;1.80;1.67;;;20.60;53.70;;;;;;5094732;28;20449;-73
2024/01/13 09:21:35;;;;;;;2.60;2.30;;;20.50;53.70;;;;;;5094337;28;20439;-73
2024/01/13 09:24:00;;;;;;;2.07;1.67;;;20.60;53.70;;;;;;5093755;28;20170;-69
2024/01/13 09:26:26;;;;;;;4.97;1.90;;;20.60;53.70;;;;;;5094226;28;20189;-71
2024/01/13 09:28:52;;;;;;;2.30;1.60;;;20.60;53.70;;;;;;5092654;28;20201;-72
2024/01/13 09:31:18;;;;;;;3.20;1.90;;;20.60;53.80;;;;;;5093432;28;20169;-72
2024/01/13 09:33:45;;;;;;;2.13;1.60;;;20.60;53.70;;;;;;5094202;28;20407;-74
2024/01/13 09:36:12;;;;;;;2.10;1.63;;;20.60;53.70;;;;;;5075086;28;20994;-73
2024/01/13 09:38:37;;;;;;;2.47;1.70;;;20.60;53.80;;;;;;5094860;28;20424;-74
2024/01/13 09:41:03;;;;;;;3.60;2.30;;;20.60;53.70;;;;;;5094569;28;20455;-68
2024/01/13 09:43:37;;;;;;;2.90;2.33;;;20.60;53.80;;;;;;5094634;28;20189;-74
2024/01/13 09:46:03;;;;;;;2.30;1.90;;;20.60;53.80;;;;;;5096634;28;20466;-75
2024/01/13 09:48:29;;;;;;;2.50;1.97;;;20.60;53.80;;;;;;5079384;28;20806;-72
2024/01/13 09:50:56;;;;;;;4.50;2.03;;;20.60;53.80;;;;;;5097004;28;20419;-72
2024/01/13 09:53:30;;;;;;;4.07;2.10;;;20.60;53.80;;;;;;5099519;28;20176;-70
2024/01/13 09:56:00;;;;;;;3.23;1.90;;;20.60;53.80;;;;;;5097892;28;20482;-70
2024/01/13 09:58:26;;;;;;;3.13;2.17;;;20.60;53.80;;;;;;5099415;28;20569;-70
2024/01/13 10:00:53;;;;;;;1.80;1.50;;;20.60;53.80;;;;;;5080369;28;20496;-69
2024/01/13 10:03:20;;;;;;;2.80;1.60;;;20.60;53.80;;;;;;5097335;28;20404;-70
2024/01/13 10:05:47;;;;;;;2.40;1.73;;;20.60;53.80;;;;;;5079910;28;20444;-71
2024/01/13 10:08:12;;;;;;;3.23;1.90;;;20.60;53.80;;;;;;5097224;28;20408;-69
2024/01/13 10:10:39;;;;;;;1.80;1.60;;;20.60;53.80;;;;;;5097014;28;20404;-70
2024/01/13 10:13:07;;;;;;;2.60;1.70;;;20.60;53.80;;;;;;5097418;28;20170;-71
2024/01/13 10:15:36;;;;;;;3.10;2.00;;;20.60;53.80;;;;;;5095999;28;20465;-71
2024/01/13 10:18:01;;;;;;;3.90;1.97;;;20.60;53.80;;;;;;5095687;28;20453;-69
2024/01/13 10:20:27;;;;;;;2.57;2.23;;;20.60;53.80;;;;;;5095706;28;20404;-71
2024/01/13 10:22:53;;;;;;;2.33;1.67;;;20.60;53.80;;;;;;5094204;28;20172;-71
2024/01/13 10:25:21;;;;;;;3.17;1.60;;;20.60;53.80;;;;;;5093683;28;20227;-71
2024/01/13 10:27:47;;;;;;;3.03;1.90;;;20.50;53.70;;;;;;5094349;28;20486;-70
2024/01/13 10:30:14;;;;;;;2.83;1.70;;;20.50;53.80;;;;;;5094324;28;20419;-69
2024/01/13 10:32:41;;;;;;;4.03;2.03;;;20.50;53.80;;;;;;5093605;28;20516;-70
2024/01/13 10:35:07;;;;;;;2.60;2.00;;;20.50;54.00;;;;;;5094355;28;20431;-71
2024/01/13 10:37:35;;;;;;;3.03;1.50;;;20.50;53.80;;;;;;5093870;28;20849;-69
2024/01/13 10:40:01;;;;;;;2.27;1.50;;;20.50;53.80;;;;;;5093955;28;20481;-71
2024/01/13 10:42:34;;;;;;;3.20;2.07;;;20.50;53.80;;;;;;5093613;28;20969;-70
2024/01/13 10:45:02;;;;;;;2.70;1.70;;;20.50;53.80;;;;;;5093572;28;20172;-70
2024/01/13 10:47:31;;;;;;;1.73;1.50;;;20.50;53.90;;;;;;5095260;28;20404;-69
2024/01/13 10:49:58;;;;;;;2.80;1.93;;;20.50;53.90;;;;;;5092917;28;20420;-71
2024/01/13 10:52:32;;;;;;;1.73;1.30;;;20.50;53.90;;;;;;5091753;28;20410;-70
2024/01/13 10:55:02;;;;;;;3.13;2.00;;;20.50;53.90;;;;;;5092786;28;20387;-72
2024/01/13 10:57:29;;;;;;;2.10;1.73;;;20.50;54.00;;;;;;5092795;28;20414;-70
2024/01/13 10:59:55;;;;;;;2.50;1.33;;;20.50;54.00;;;;;;5094591;28;20434;-70
2024/01/13 11:02:22;;;;;;;3.10;1.70;;;20.50;54.00;;;;;;5095040;28;20489;-69
2024/01/13 11:04:48;;;;;;;1.80;1.60;;;20.50;54.00;;;;;;5077420;28;20452;-69
2024/01/13 11:07:13;;;;;;;1.50;1.27;;;20.50;53.90;;;;;;5094615;28;20939;-70
2024/01/13 11:09:40;;;;;;;1.80;1.40;;;20.50;54.00;;;;;;5095958;28;20181;-70
2024/01/13 11:12:20;;;;;;;1.73;1.30;;;20.50;53.90;;;;;;5095673;28;20166;-71
2024/01/13 11:15:03;;;;;;;2.40;1.40;;;20.60;54.00;;;;;;5096754;28;20392;-72
2024/01/13 11:17:30;;;;;;;2.60;1.60;;;20.60;53.90;;;;;;5095641;28;20435;-72
2024/01/13 11:19:55;;;;;;;2.10;1.40;;;20.60;53.90;;;;;;5095637;28;20435;-71
2024/01/13 11:22:36;;;;;;;1.63;1.40;;;20.60;54.50;;;;;;5076062;28;20785;-71
2024/01/13 11:25:04;;;;;;;2.00;1.30;;;20.60;53.90;;;;;;5095749;28;20177;-73
2024/01/13 11:27:30;;;;;;;2.00;1.30;;;20.60;53.90;;;;;;5092672;28;20439;-70
2024/01/13 11:29:57;;;;;;;1.57;1.33;;;20.60;53.90;;;;;;5094547;28;20505;-67
2024/01/13 11:32:24;;;;;;;3.00;1.37;;;20.60;53.90;;;;;;5094877;28;20192;-68
2024/01/13 11:34:50;;;;;;;2.07;1.50;;;20.60;53.90;;;;;;5092491;28;20762;-69
2024/01/13 11:37:16;;;;;;;1.53;1.17;;;20.60;53.90;;;;;;5091396;28;20399;-69
2024/01/13 11:39:45;;;;;;;1.40;1.30;;;20.60;53.80;;;;;;5094955;28;20185;-69
2024/01/13 11:42:11;;;;;;;3.13;1.57;;;20.60;53.80;;;;;;5094632;28;20182;-69
2024/01/13 11:44:44;;;;;;;1.90;1.60;;;20.60;53.80;;;;;;5094520;28;20399;-69
2024/01/13 11:47:12;;;;;;;1.60;1.40;;;20.70;53.90;;;;;;5076664;28;20395;-68
2024/01/13 11:49:39;;;;;;;1.60;1.33;;;20.70;53.90;;;;;;5094310;28;21014;-69
2024/01/13 11:52:13;;;;;;;1.60;1.37;;;20.70;53.90;;;;;;5094417;28;20427;-69
2024/01/13 11:54:40;;;;;;;2.10;1.53;;;20.70;53.90;;;;;;5094579;28;21118;-65
2024/01/13 11:57:08;;;;;;;1.80;1.60;;;20.70;53.90;;;;;;5094309;28;20492;-68
2024/01/13 11:59:34;;;;;;;3.13;1.90;;;20.60;53.80;;;;;;5094284;28;20427;-69
2024/01/13 12:02:00;;;;;;;1.73;1.40;;;20.70;53.90;;;;;;5094394;28;20470;-69
2024/01/13 12:04:28;;;;;;;1.97;1.40;;;20.70;53.90;;;;;;5094208;28;20577;-69
2024/01/13 12:06:54;;;;;;;1.70;1.43;;;20.70;53.90;;;;;;5094114;28;20431;-69
2024/01/13 12:09:24;;;;;;;1.70;1.20;;;20.70;53.90;;;;;;5094063;28;20474;-69
2024/01/13 12:11:52;;;;;;;1.90;1.70;;;20.70;53.90;;;;;;5094091;28;20411;-68
2024/01/13 12:14:22;;;;;;;1.80;1.53;;;20.60;53.80;;;;;;5093969;28;20419;-69
2024/01/13 12:16:47;;;;;;;2.00;1.40;;;20.70;53.90;;;;;;5074959;28;20451;-69
2024/01/13 12:19:14;;;;;;;1.33;1.23;;;20.70;53.90;;;;;;5074945;28;20854;-70
2024/01/13 12:21:40;;;;;;;2.13;1.57;;;20.60;53.80;;;;;;5093184;28;20293;-68
2024/01/13 12:24:06;;;;;;;1.70;1.30;;;20.60;53.80;;;;;;5093619;28;20529;-69
2024/01/13 12:26:32;;;;;;;1.80;1.43;;;20.60;53.80;;;;;;5093084;28;20427;-69
2024/01/13 12:28:59;;;;;;;1.37;1.20;;;20.60;53.80;;;;;;5093047;28;20185;-69
2024/01/13 12:31:25;;;;;;;2.47;1.30;;;20.60;53.80;;;;;;5093038;28;20745;-69
2024/01/13 12:33:51;;;;;;;3.03;1.47;;;20.60;53.80;;;;;;5093091;28;20400;-69
2024/01/13 12:36:16;;;;;;;1.90;1.50;;;20.60;53.80;;;;;;5092880;28;20410;-69
2024/01/13 12:38:44;;;;;;;1.67;1.43;;;20.60;53.80;;;;;;5092920;28;20193;-69
2024/01/13 12:41:09;;;;;;;1.90;1.50;;;20.60;53.80;;;;;;5093020;28;20496;-69
2024/01/13 12:43:38;;;;;;;1.90;1.20;;;20.70;54.00;;;;;;5092763;28;20230;-69